createdAt,value
2019-05-12T00:02:07.662Z,23.47
2019-05-12T00:04:33.035Z,23.51
2019-05-12T00:06:59.701Z,23.55
2019-05-12T00:09:28.273Z,23.56
2019-05-12T00:11:52.984Z,23.51
2019-05-12T00:14:19.658Z,23.47
2019-05-12T00:16:48.916Z,23.41
2019-05-12T00:19:12.965Z,23.50
2019-05-12T00:21:39.961Z,23.54
2019-05-12T00:24:08.029Z,23.51
2019-05-12T00:26:32.930Z,23.59
2019-05-12T00:28:59.589Z,23.55
2019-05-12T00:31:28.080Z,23.44
2019-05-12T00:33:52.925Z,23.41
2019-05-12T00:36:19.556Z,23.39
2019-05-12T00:38:48.426Z,23.45
2019-05-12T00:41:12.879Z,23.51
2019-05-12T00:43:39.527Z,23.57
2019-05-12T00:46:07.930Z,23.57
2019-05-12T00:48:32.860Z,23.53
2019-05-12T00:50:59.556Z,23.43
2019-05-12T00:53:39.469Z,23.35
2019-05-12T00:55:52.876Z,23.36
2019-05-12T00:58:19.846Z,23.41
2019-05-12T01:00:48.289Z,23.46
2019-05-12T01:03:12.872Z,23.49
2019-05-12T01:05:39.541Z,23.47
2019-05-12T01:08:08.475Z,23.44
2019-05-12T01:10:32.917Z,23.36
2019-05-12T01:12:59.569Z,23.30
2019-05-12T01:15:28.369Z,23.20
2019-05-12T01:17:52.896Z,23.27
2019-05-12T01:20:19.674Z,23.35
2019-05-12T01:22:50.414Z,23.38
2019-05-12T01:25:12.964Z,23.39
2019-05-12T01:27:39.611Z,23.36
2019-05-12T01:30:08.450Z,23.22
2019-05-12T01:32:32.978Z,23.17
2019-05-12T01:34:59.617Z,23.11
2019-05-12T01:37:27.999Z,23.14
2019-05-12T01:39:52.907Z,23.27
2019-05-12T01:42:19.600Z,23.31
2019-05-12T01:44:48.158Z,23.33
2019-05-12T01:47:12.898Z,23.30
2019-05-12T01:52:08.578Z,23.05
2019-05-12T01:54:32.868Z,23.00
2019-05-12T01:56:59.522Z,23.09
2019-05-12T01:59:26.169Z,23.17
2019-05-12T02:01:52.812Z,23.22
2019-05-12T02:04:19.505Z,23.25
2019-05-12T02:06:48.400Z,23.19
2019-05-12T02:09:12.798Z,23.10
2019-05-12T02:11:39.442Z,23.06
2019-05-12T02:14:06.133Z,23.00
2019-05-12T02:16:32.778Z,23.02
2019-05-12T02:18:59.494Z,23.07
2019-05-12T02:21:27.985Z,23.10
2019-05-12T02:23:52.833Z,23.12
2019-05-12T02:26:19.507Z,23.13
2019-05-12T02:28:48.042Z,23.05
2019-05-12T02:31:12.808Z,22.96
2019-05-12T02:33:39.463Z,22.94
2019-05-12T02:36:06.144Z,22.93
2019-05-12T02:38:33.391Z,23.00
2019-05-12T02:40:59.516Z,23.03
2019-05-12T02:43:26.156Z,23.07
2019-05-12T02:45:54.704Z,23.05
2019-05-12T02:48:19.460Z,22.95
2019-05-12T02:50:46.101Z,22.88
2019-05-12T02:53:14.541Z,22.83
2019-05-12T02:55:39.411Z,22.78
2019-05-12T02:58:06.560Z,22.77
2019-05-12T03:00:35.227Z,22.82
2019-05-12T03:02:59.392Z,22.84
2019-05-12T03:05:26.040Z,22.90
2019-05-12T03:07:55.249Z,22.85
2019-05-12T03:10:19.359Z,22.78
2019-05-12T03:12:46.038Z,22.75
2019-05-12T03:15:15.141Z,22.73
2019-05-12T03:17:39.376Z,22.80
2019-05-12T03:20:06.094Z,22.79
2019-05-12T03:22:35.303Z,22.89
2019-05-12T03:25:11.295Z,22.93
2019-05-12T03:29:55.194Z,22.78
2019-05-12T03:32:19.342Z,22.73
2019-05-12T03:34:47.496Z,22.73
2019-05-12T03:37:17.909Z,22.82
2019-05-12T03:39:39.323Z,22.90
2019-05-12T03:42:06.047Z,23.02
2019-05-12T03:44:35.272Z,23.06
2019-05-12T03:46:59.332Z,23.18
2019-05-12T03:49:26.026Z,23.17
2019-05-12T03:51:54.332Z,23.06
2019-05-12T03:54:19.403Z,23.08
2019-05-12T03:56:46.054Z,23.26
2019-05-12T03:59:14.943Z,23.29
2019-05-12T04:01:39.407Z,23.38
2019-05-12T04:04:06.071Z,23.37
2019-05-12T04:06:34.626Z,23.15
2019-05-12T04:09:00.128Z,23.15
2019-05-12T04:11:26.073Z,23.01
2019-05-12T04:13:55.064Z,23.09
2019-05-12T04:16:19.384Z,23.48
2019-05-12T04:21:15.598Z,23.70
2019-05-12T04:23:39.328Z,23.93
2019-05-12T04:26:11.808Z,23.76
2019-05-12T04:28:35.164Z,23.22
2019-05-12T04:30:59.353Z,23.21
2019-05-12T04:33:26.023Z,23.01
2019-05-12T04:35:55.283Z,23.10
2019-05-12T04:38:19.312Z,23.11
2019-05-12T04:43:14.618Z,23.31
2019-05-12T04:45:39.327Z,23.27
2019-05-12T04:48:06.471Z,23.27
2019-05-12T04:50:35.353Z,23.21
2019-05-12T04:52:59.263Z,23.26
2019-05-12T04:55:25.951Z,23.47
2019-05-12T04:57:54.564Z,23.49
2019-05-12T05:00:19.269Z,23.68
2019-05-12T05:02:45.916Z,23.65
2019-05-12T05:05:14.534Z,23.69
2019-05-12T05:07:39.245Z,23.73
2019-05-12T05:10:05.884Z,23.76
2019-05-12T05:12:34.494Z,23.74
2019-05-12T05:14:59.188Z,23.80
2019-05-12T05:17:25.877Z,23.82
2019-05-12T05:19:53.430Z,23.91
2019-05-12T05:22:19.171Z,23.98
2019-05-12T05:24:45.809Z,24.07
2019-05-12T05:27:13.285Z,24.12
2019-05-12T05:29:39.142Z,24.17
2019-05-12T05:32:05.788Z,24.20
2019-05-12T05:34:34.276Z,24.27
2019-05-12T05:37:01.476Z,24.48
2019-05-12T05:39:25.860Z,24.69
2019-05-12T05:41:53.795Z,24.76
2019-05-12T05:44:19.151Z,24.86
2019-05-12T05:46:50.048Z,24.88
2019-05-12T05:49:13.325Z,24.70
2019-05-12T05:51:39.810Z,24.71
2019-05-12T05:54:05.816Z,24.88
2019-05-12T05:56:42.234Z,24.99
2019-05-12T05:58:59.162Z,24.91
2019-05-12T06:01:25.812Z,25.20
2019-05-12T06:03:53.246Z,25.39
2019-05-12T06:06:19.140Z,25.52
2019-05-12T06:08:45.791Z,25.55
2019-05-12T06:11:14.839Z,25.39
2019-05-12T06:13:40.236Z,25.00
2019-05-12T06:16:05.881Z,24.99
2019-05-12T06:18:33.463Z,25.31
2019-05-12T06:20:59.230Z,25.49
2019-05-12T06:23:29.054Z,25.51
2019-05-12T06:25:54.717Z,25.53
2019-05-12T06:28:19.188Z,25.43
2019-05-12T06:30:49.521Z,25.41
2019-05-12T06:33:14.383Z,25.55
2019-05-12T06:35:42.224Z,25.55
2019-05-12T06:38:05.795Z,25.66
2019-05-12T06:40:40.309Z,25.66
2019-05-12T06:42:59.134Z,25.62
2019-05-12T06:45:28.370Z,25.68
2019-05-12T06:47:55.572Z,25.62
2019-05-12T06:50:19.071Z,25.73
2019-05-12T06:52:49.045Z,25.66
2019-05-12T06:55:14.558Z,25.50
2019-05-12T06:57:39.987Z,25.59
2019-05-12T07:00:05.732Z,25.79
2019-05-12T07:02:37.031Z,25.69
2019-05-12T07:04:59.648Z,25.88
2019-05-12T07:07:27.624Z,25.63
2019-05-12T07:09:54.970Z,25.70
2019-05-12T07:12:18.995Z,25.53
2019-05-12T07:14:48.934Z,25.48
2019-05-12T07:17:14.492Z,25.75
2019-05-12T07:19:39.004Z,25.86
2019-05-12T07:22:18.869Z,25.68
2019-05-12T07:24:34.183Z,25.56
2019-05-12T07:27:04.476Z,25.46
2019-05-12T07:29:25.631Z,25.48
2019-05-12T07:31:53.732Z,25.37
2019-05-12T07:34:18.956Z,25.43
2019-05-12T07:39:13.618Z,25.58
2019-05-12T07:41:42.383Z,25.76
2019-05-12T07:44:05.256Z,25.90
2019-05-12T07:48:58.186Z,25.58
2019-05-12T07:51:24.834Z,25.71
2019-05-12T07:53:55.425Z,25.42
2019-05-12T07:56:19.505Z,25.65
2019-05-12T07:58:47.478Z,25.88
2019-05-12T08:01:11.441Z,25.53
2019-05-12T08:06:04.813Z,25.82
2019-05-12T08:08:31.426Z,25.87
2019-05-12T08:10:58.061Z,25.83
2019-05-12T08:13:24.714Z,25.66
2019-05-12T08:15:53.996Z,25.84
2019-05-12T08:18:18.009Z,25.56
2019-05-12T08:20:44.652Z,25.78
2019-05-12T08:23:11.289Z,25.84
2019-05-12T08:25:37.973Z,25.90
2019-05-12T08:28:15.154Z,25.93
2019-05-12T08:30:33.109Z,25.94
2019-05-12T08:33:07.225Z,25.69
2019-05-12T08:35:29.302Z,25.85
2019-05-12T08:37:51.324Z,25.62
2019-05-12T08:40:17.970Z,25.62
2019-05-12T08:42:44.647Z,25.71
2019-05-12T08:45:15.159Z,25.59
2019-05-12T08:47:38.986Z,25.55
2019-05-12T08:50:04.961Z,25.43
2019-05-12T08:52:39.292Z,25.68
2019-05-12T08:54:57.914Z,25.80
2019-05-12T08:57:24.570Z,25.74
2019-05-12T08:59:54.691Z,25.66
2019-05-12T09:04:51.478Z,25.69
2019-05-12T09:07:13.667Z,25.75
2019-05-12T09:09:37.813Z,25.62
2019-05-12T09:14:33.509Z,25.64
2019-05-12T09:17:02.505Z,25.75
2019-05-12T09:19:27.117Z,25.59
2019-05-12T09:21:51.069Z,25.47
2019-05-12T09:24:21.604Z,25.58
2019-05-12T09:26:44.407Z,25.37
2019-05-12T09:29:11.042Z,25.42
2019-05-12T09:31:37.696Z,25.56
2019-05-12T09:34:11.484Z,25.57
2019-05-12T09:36:30.992Z,25.60
2019-05-12T09:39:01.498Z,25.67
2019-05-12T09:41:24.350Z,25.70
2019-05-12T09:43:53.048Z,25.63
2019-05-12T09:46:17.813Z,25.72
2019-05-12T09:48:50.907Z,25.61
2019-05-12T09:51:13.178Z,25.53
2019-05-12T09:53:42.750Z,25.53
2019-05-12T09:56:04.638Z,25.62
2019-05-12T09:58:31.150Z,25.66
2019-05-12T10:00:57.786Z,25.69
2019-05-12T10:05:53.298Z,25.58
2019-05-12T10:08:17.834Z,25.51
2019-05-12T10:10:46.794Z,25.55
2019-05-12T10:13:13.625Z,25.58
2019-05-12T10:15:37.751Z,25.54
2019-05-12T10:18:09.466Z,25.68
2019-05-12T10:20:35.306Z,25.74
2019-05-12T10:22:57.711Z,25.78
2019-05-12T10:25:28.481Z,25.77
2019-05-12T10:27:53.151Z,25.65
2019-05-12T10:30:17.829Z,25.66
2019-05-12T10:35:12.449Z,25.75
2019-05-12T10:37:37.718Z,25.70
2019-05-12T10:40:04.361Z,25.74
2019-05-12T10:42:31.055Z,25.83
2019-05-12T10:44:57.743Z,25.58
2019-05-12T10:47:24.381Z,25.60
2019-05-12T10:49:53.511Z,25.75
2019-05-12T10:52:17.683Z,25.60
2019-05-12T10:54:44.312Z,25.56
2019-05-12T10:57:10.994Z,25.61
2019-05-12T10:59:38.670Z,25.69
2019-05-12T11:02:04.309Z,25.70
2019-05-12T11:04:36.861Z,25.68
2019-05-12T11:06:57.615Z,25.69
2019-05-12T11:09:27.344Z,25.48
2019-05-12T11:11:53.815Z,25.49
2019-05-12T11:16:44.658Z,25.34
2019-05-12T11:19:10.931Z,25.52
2019-05-12T11:21:37.594Z,25.59
2019-05-12T11:24:04.221Z,25.64
2019-05-12T11:26:30.902Z,25.72
2019-05-12T11:28:57.540Z,25.85
2019-05-12T11:31:24.405Z,25.90
2019-05-12T11:33:50.864Z,26.01
2019-05-12T11:38:44.486Z,25.91
2019-05-12T11:41:16.217Z,25.94
2019-05-12T11:43:37.505Z,25.95
2019-05-12T11:46:04.156Z,25.90
2019-05-12T11:48:30.859Z,25.89
2019-05-12T11:50:57.499Z,25.84
2019-05-12T11:53:30.313Z,25.78
2019-05-12T11:55:50.831Z,25.97
2019-05-12T11:58:17.540Z,25.94
2019-05-12T12:00:44.268Z,26.00
2019-05-12T12:03:12.956Z,26.07
2019-05-12T12:05:38.388Z,25.91
2019-05-12T12:08:04.212Z,25.88
2019-05-12T12:10:37.535Z,25.94
2019-05-12T12:12:57.556Z,25.82
2019-05-12T12:15:26.315Z,25.97
2019-05-12T12:17:50.841Z,26.14
2019-05-12T12:20:22.549Z,26.05
2019-05-12T12:22:44.159Z,26.00
2019-05-12T12:25:13.096Z,26.08
2019-05-12T12:27:37.461Z,25.89
2019-05-12T12:30:16.012Z,25.91
2019-05-12T12:32:30.835Z,26.07
2019-05-12T12:35:00.817Z,26.04
2019-05-12T12:37:25.673Z,26.04
2019-05-12T12:39:50.834Z,26.01
2019-05-12T12:42:17.493Z,26.05
2019-05-12T12:44:44.141Z,25.98
2019-05-12T12:47:10.792Z,25.88
2019-05-12T12:49:39.842Z,26.07
2019-05-12T12:52:04.125Z,25.94
2019-05-12T12:54:30.810Z,26.03
2019-05-12T12:57:00.259Z,25.94
2019-05-12T12:59:24.149Z,25.90
2019-05-12T13:01:50.744Z,26.02
2019-05-12T13:04:17.439Z,26.04
2019-05-12T13:06:44.084Z,25.99
2019-05-12T13:09:18.258Z,25.93
2019-05-12T13:11:37.408Z,26.00
2019-05-12T13:14:04.196Z,25.96
2019-05-12T13:16:30.784Z,26.00
2019-05-12T13:21:24.082Z,26.15
2019-05-12T13:23:51.175Z,26.08
2019-05-12T13:26:17.393Z,25.95
2019-05-12T13:28:45.425Z,26.10
2019-05-12T13:31:13.644Z,26.27
2019-05-12T13:33:37.341Z,26.28
2019-05-12T13:36:04.441Z,26.19
2019-05-12T13:38:35.692Z,26.22
2019-05-12T13:40:57.315Z,26.22
2019-05-12T13:43:24.002Z,26.01
2019-05-12T13:45:50.746Z,25.96
2019-05-12T13:48:19.763Z,26.18
2019-05-12T13:50:44.069Z,26.26
2019-05-12T13:53:10.797Z,26.16
2019-05-12T13:55:39.409Z,26.15
2019-05-12T14:00:30.797Z,26.16
2019-05-12T14:03:04.738Z,26.20
2019-05-12T14:05:24.219Z,26.03
2019-05-12T14:07:55.604Z,25.98
2019-05-12T14:10:17.406Z,25.92
2019-05-12T14:12:44.200Z,26.00
2019-05-12T14:15:10.750Z,26.16
2019-05-12T14:17:40.461Z,26.13
2019-05-12T14:20:04.176Z,26.11
2019-05-12T14:22:30.752Z,26.20
2019-05-12T14:24:57.403Z,26.26
2019-05-12T14:27:28.517Z,26.18
2019-05-12T14:29:50.749Z,26.03
2019-05-12T14:32:19.072Z,26.02
2019-05-12T14:34:44.052Z,26.01
2019-05-12T14:37:10.705Z,26.01
2019-05-12T14:39:40.253Z,25.99
2019-05-12T14:42:04.376Z,25.90
2019-05-12T14:44:35.263Z,25.81
2019-05-12T14:46:57.429Z,25.84
2019-05-12T14:49:28.512Z,25.93
2019-05-12T14:51:50.761Z,26.11
2019-05-12T14:54:17.416Z,26.05
2019-05-12T14:56:52.747Z,26.01
2019-05-12T14:59:10.775Z,25.96
2019-05-12T15:01:52.276Z,25.94
2019-05-12T15:04:05.216Z,25.84
2019-05-12T15:06:30.814Z,26.05
2019-05-12T15:08:57.466Z,26.05
2019-05-12T15:11:24.141Z,26.02
2019-05-12T15:13:50.782Z,25.98
2019-05-12T15:16:17.472Z,25.79
2019-05-12T15:18:48.309Z,25.74
2019-05-12T15:21:10.810Z,25.85
2019-05-12T15:23:37.625Z,25.72
2019-05-12T15:26:04.381Z,25.70
2019-05-12T15:28:30.764Z,25.70
2019-05-12T15:33:26.386Z,25.74
2019-05-12T15:35:54.755Z,25.76
2019-05-12T15:38:19.690Z,25.86
2019-05-12T15:40:46.329Z,25.86
2019-05-12T15:43:13.913Z,25.89
2019-05-12T15:45:39.646Z,25.93
2019-05-12T15:48:06.330Z,25.95
2019-05-12T15:50:34.251Z,25.95
2019-05-12T15:52:59.673Z,25.94
2019-05-12T15:55:32.651Z,25.97
2019-05-12T15:57:52.971Z,26.06
2019-05-12T16:00:19.659Z,26.12
2019-05-12T16:02:46.308Z,26.16
2019-05-12T16:05:14.460Z,26.23
2019-05-12T16:07:39.858Z,26.15
2019-05-12T16:10:06.289Z,26.14
2019-05-12T16:12:34.331Z,26.11
2019-05-12T16:15:00.724Z,26.12
2019-05-12T16:17:27.380Z,26.19
2019-05-12T16:19:54.183Z,26.26
2019-05-12T16:22:20.682Z,26.28
2019-05-12T16:24:48.963Z,26.27
2019-05-12T16:27:14.161Z,26.24
2019-05-12T16:29:45.604Z,26.20
2019-05-12T16:32:07.348Z,26.21
2019-05-12T16:34:36.148Z,26.17
2019-05-12T16:37:00.702Z,26.13
2019-05-12T16:39:30.488Z,26.17
2019-05-12T16:41:54.485Z,26.21
2019-05-12T16:44:22.958Z,26.22
2019-05-12T16:46:47.362Z,26.21
2019-05-12T16:49:14.083Z,26.21
2019-05-12T16:51:40.694Z,26.19
2019-05-12T16:56:34.048Z,26.16
2019-05-12T16:59:00.706Z,26.22
2019-05-12T17:01:29.300Z,26.24
2019-05-12T17:03:54.672Z,26.26
2019-05-12T17:06:20.724Z,26.25
2019-05-12T17:08:47.420Z,26.25
2019-05-12T17:11:27.162Z,26.23
2019-05-12T17:13:40.709Z,26.28
2019-05-12T17:16:07.403Z,26.30
2019-05-12T17:18:34.222Z,26.36
2019-05-12T17:21:00.714Z,26.41
2019-05-12T17:23:27.353Z,26.41
2019-05-12T17:25:54.038Z,26.28
2019-05-12T17:28:20.678Z,26.22
2019-05-12T17:30:47.387Z,26.03
2019-05-12T17:33:22.338Z,25.98
2019-05-12T17:38:13.938Z,26.02
2019-05-12T17:40:34.042Z,26.04
2019-05-12T17:43:06.694Z,26.06
2019-05-12T17:47:56.933Z,26.02
2019-05-12T17:50:20.662Z,26.07
2019-05-12T17:52:50.367Z,26.03
2019-05-12T17:55:14.629Z,26.07
2019-05-12T17:57:40.599Z,26.11
2019-05-12T18:00:10.594Z,26.16
2019-05-12T18:02:34.324Z,26.15
2019-05-12T18:05:01.289Z,26.11
2019-05-12T18:07:27.216Z,26.12
2019-05-12T18:09:56.741Z,26.08
2019-05-12T18:12:20.528Z,26.07
2019-05-12T18:14:52.240Z,26.11
2019-05-12T18:17:14.341Z,26.13
2019-05-12T18:19:40.513Z,26.16
2019-05-12T18:22:09.412Z,26.14
2019-05-12T18:24:34.439Z,26.12
2019-05-12T18:27:05.028Z,26.04
2019-05-12T18:29:27.161Z,25.94
2019-05-12T18:31:55.622Z,25.97
2019-05-12T18:34:20.455Z,25.98
2019-05-12T18:36:48.963Z,26.00
2019-05-12T18:39:15.238Z,25.96
2019-05-12T18:41:40.466Z,25.94
2019-05-12T18:44:07.143Z,25.91
2019-05-12T18:49:03.091Z,25.91
2019-05-12T18:51:27.114Z,25.91
2019-05-12T18:53:56.028Z,25.93
2019-05-12T18:56:21.938Z,26.03
2019-05-12T18:58:47.117Z,26.02
2019-05-12T19:01:14.185Z,25.93
2019-05-12T19:03:50.297Z,25.87
2019-05-12T19:06:07.204Z,25.84
2019-05-12T19:08:33.841Z,25.84
2019-05-12T19:11:15.951Z,25.80
2019-05-12T19:13:27.138Z,25.89
2019-05-12T19:16:02.627Z,25.94
2019-05-12T19:18:24.360Z,25.91
2019-05-12T19:20:48.158Z,25.85
2019-05-12T19:23:14.315Z,25.86
2019-05-12T19:25:41.018Z,25.84
2019-05-12T19:28:10.507Z,25.74
2019-05-12T19:30:34.490Z,25.67
2019-05-12T19:33:06.477Z,25.64
2019-05-12T19:37:54.029Z,25.66
2019-05-12T19:40:20.377Z,25.69
2019-05-12T19:42:47.075Z,25.59
2019-05-12T19:45:21.114Z,25.44
2019-05-12T19:47:40.405Z,25.45
2019-05-12T19:50:11.936Z,25.48
2019-05-12T19:52:33.738Z,25.52
2019-05-12T19:55:03.789Z,25.58
2019-05-12T19:57:30.027Z,25.51
2019-05-12T19:59:56.683Z,25.56
2019-05-12T20:02:23.773Z,25.48
2019-05-12T20:04:52.060Z,25.47
2019-05-12T20:09:48.391Z,25.48
2019-05-12T20:12:15.645Z,25.46
2019-05-12T20:14:36.654Z,25.52
2019-05-12T20:17:03.306Z,25.48
2019-05-12T20:19:29.942Z,25.47
2019-05-12T20:21:56.589Z,25.39
2019-05-12T20:24:23.825Z,25.28
2019-05-12T20:26:49.880Z,25.21
2019-05-12T20:29:16.525Z,25.16
2019-05-12T20:31:48.247Z,25.15
2019-05-12T20:34:11.067Z,25.20
2019-05-12T20:36:36.467Z,25.27
2019-05-12T20:41:29.764Z,25.23
2019-05-12T20:43:56.462Z,25.21
2019-05-12T20:46:25.766Z,25.20
2019-05-12T20:48:49.848Z,25.14
2019-05-12T20:51:20.065Z,25.12
2019-05-12T20:53:43.695Z,25.11
2019-05-12T20:56:12.153Z,25.08
2019-05-12T20:58:43.014Z,25.12
2019-05-12T21:01:05.210Z,25.14
2019-05-12T21:03:29.789Z,25.12
2019-05-12T21:06:00.198Z,25.05
2019-05-12T21:08:23.673Z,25.04
2019-05-12T21:10:54.133Z,25.05
2019-05-12T21:13:20.424Z,25.10
2019-05-12T21:15:46.425Z,25.14
2019-05-12T21:18:14.678Z,25.11
2019-05-12T21:20:39.704Z,25.12
2019-05-12T21:23:06.384Z,24.86
2019-05-12T21:28:02.695Z,24.73
2019-05-12T21:30:26.312Z,24.77
2019-05-12T21:33:01.140Z,24.70
2019-05-12T21:35:22.625Z,24.75
2019-05-12T21:37:48.481Z,24.55
2019-05-12T21:40:14.875Z,24.51
2019-05-12T21:42:39.585Z,24.57
2019-05-12T21:45:06.308Z,24.66
2019-05-12T21:47:34.069Z,24.49
2019-05-12T21:49:59.637Z,24.44
2019-05-12T21:52:26.285Z,24.26
2019-05-12T21:54:55.444Z,24.23
2019-05-12T21:57:27.468Z,24.16
2019-05-12T21:59:46.312Z,24.44
2019-05-12T22:02:14.716Z,24.47
2019-05-12T22:04:41.686Z,24.55
2019-05-12T22:07:07.023Z,24.60
2019-05-12T22:09:41.779Z,24.62
2019-05-12T22:12:03.709Z,24.73
2019-05-12T22:14:30.502Z,24.84
2019-05-12T22:16:55.566Z,24.91
2019-05-12T22:19:22.204Z,24.97
2019-05-12T22:21:49.582Z,24.92
2019-05-12T22:24:15.578Z,24.98
2019-05-12T22:26:45.966Z,24.99
2019-05-12T22:29:08.943Z,25.03
2019-05-12T22:31:38.671Z,25.12
2019-05-12T22:36:30.183Z,25.20
2019-05-12T22:39:00.869Z,25.20
2019-05-12T22:41:24.232Z,25.14
2019-05-12T22:46:16.723Z,25.05
2019-05-12T22:48:42.498Z,25.00
2019-05-12T22:51:17.497Z,25.07
2019-05-12T22:53:35.851Z,25.20
2019-05-12T22:56:11.893Z,25.19
2019-05-12T22:58:29.172Z,25.14
2019-05-12T23:01:00.642Z,25.02
2019-05-12T23:03:22.480Z,24.98
2019-05-12T23:05:50.755Z,24.91
2019-05-12T23:08:15.798Z,24.92
2019-05-12T23:10:51.341Z,24.92
2019-05-12T23:15:38.729Z,25.05
2019-05-12T23:18:04.315Z,25.01
2019-05-12T23:20:31.116Z,24.96
2019-05-12T23:22:55.791Z,24.90
2019-05-12T23:25:24.488Z,24.83
2019-05-12T23:27:49.135Z,24.88
2019-05-12T23:30:16.026Z,24.95
2019-05-12T23:32:51.109Z,24.94
2019-05-12T23:35:09.121Z,24.93
2019-05-12T23:37:40.091Z,24.86
2019-05-12T23:40:04.340Z,24.65
2019-05-12T23:42:29.080Z,24.58
2019-05-12T23:44:55.780Z,24.65
2019-05-12T23:47:23.803Z,24.74
2019-05-12T23:49:49.097Z,24.88
2019-05-12T23:52:15.735Z,24.92
2019-05-12T23:57:09.034Z,24.96
2019-05-12T23:59:35.672Z,24.86
